KALI

Alice International Airport

Alice, Texas, USA
METAR KALI 230753Z AUTO 01003KT 5SM BR OVC003 11/11 A3017 RMK AO2 SLP217 T01110106
Observed Flight Rules
Feb-23 @ 07:53 UTC (25 minutes ago) Instrument Flight Rules
Wind Visibility Clouds Conditions
10° at 3 knots 5 miles
  • Overcast at 300' AGL
  • Mist
Temperatures Readings
Current 11°C / 52°F
Dewpoint 11°C / 52°F
Humidity 100%
Altimeter 30.17" Hg
Pressure 1021.7 hPa
Elevation 53
METAR KALI 230753Z AUTO 01003KT 5SM BR OVC003 11/11 A3017 RMK AO2 SLP217 T01110106
Observed Flight Rules
Feb-23 @ 07:53 UTC
(25 minutes ago)
LIFR
Wind Visibility
10° at 3 knots 5 miles
Clouds
  • Overcast at 300' AGL
Conditions
  • Mist
Temperature Dewpoint
11°C / 52°F 11°C / 52°F
Humidity Altimeter Pressure
100% 30.17" Hg 1021.7 hPa